4MA1 weather

Bangs Heliport
Wareham, Massachusetts, United States

Public forecast

Using degrees Fahrenheit for public forecast. Weather courtesy of forecast.io.

Closest aviation weather report (METAR) to Bangs Heliport

Closest report is Plymouth Municipal Airport, 8.1 nm (15.1 km) NNW. Retrieved 2019/10/15 03:52 UTC (1 hour ago):

KPYM 150352Z AUTO 00000KT 8SM BKN007 13/12 A2999 RMK AO2 CIG 004V009 SLP156 T01280122

Closest aviation forecast (TAF) to Bangs Heliport

Closest forecast is Cape Cod Coast Guard Air Station, 10.3 nm (19.1 km) SE. Retrieved 2019-10-15 00:24 UTC (5 hours ago):

TAF KFMH 142323Z 1500/1524 24005KT P6SM OVC008 FM150300 26006KT 4SM BR SCT008 FM150600 31006KT P6SM SKC FM151500 36006KT P6SM SKC FM152100 VRB03KT P6SM SKC